createdAt,value
2023-06-19T00:01:10.402Z,34.62
2023-06-19T00:03:37.499Z,34.62
2023-06-19T00:06:04.654Z,34.71
2023-06-19T00:08:31.858Z,34.66
2023-06-19T00:10:59.364Z,34.64
2023-06-19T00:13:26.391Z,34.38
2023-06-19T00:15:53.609Z,34.30
2023-06-19T00:18:21.054Z,34.49
2023-06-19T00:20:48.546Z,34.40
2023-06-19T00:23:18.078Z,34.58
2023-06-19T00:25:45.801Z,34.15
2023-06-19T00:28:15.830Z,33.95
2023-06-19T00:30:43.396Z,34.15
2023-06-19T00:33:10.675Z,34.46
2023-06-19T00:35:37.804Z,34.38
2023-06-19T00:38:06.766Z,34.36
2023-06-19T00:40:35.166Z,34.29
2023-06-19T00:43:02.906Z,34.14
2023-06-19T00:45:30.260Z,34.22
2023-06-19T00:47:59.151Z,34.27
2023-06-19T00:50:28.994Z,34.64
2023-06-19T00:52:56.151Z,34.47
2023-06-19T00:55:23.586Z,34.42
2023-06-19T00:57:51.980Z,34.49
2023-06-19T01:00:19.324Z,34.22
2023-06-19T01:02:48.625Z,34.31
2023-06-19T01:05:16.232Z,34.02
2023-06-19T01:08:00.602Z,34.34
2023-06-19T01:10:37.798Z,34.26
2023-06-19T01:13:33.970Z,34.26
2023-06-19T01:16:04.806Z,34.01
2023-06-19T01:18:33.135Z,34.00
2023-06-19T01:21:19.047Z,34.13
2023-06-19T01:23:46.635Z,33.82
2023-06-19T01:26:14.065Z,33.84
2023-06-19T01:28:43.842Z,33.97
2023-06-19T01:31:22.283Z,33.95
2023-06-19T01:33:51.535Z,33.73
2023-06-19T01:36:20.498Z,32.67
2023-06-19T01:38:49.611Z,32.12
2023-06-19T01:41:18.353Z,32.21
2023-06-19T01:43:46.872Z,32.13
2023-06-19T01:46:13.871Z,32.28
2023-06-19T01:48:41.145Z,32.49
2023-06-19T01:51:08.498Z,32.73
2023-06-19T01:53:35.996Z,33.24
2023-06-19T01:56:03.652Z,33.46
2023-06-19T01:58:30.993Z,33.44
2023-06-19T02:00:57.980Z,33.30
2023-06-19T02:03:25.099Z,33.44
2023-06-19T02:05:53.778Z,33.46
2023-06-19T02:08:21.048Z,33.38
2023-06-19T02:10:48.118Z,33.38
2023-06-19T02:13:15.144Z,33.62
2023-06-19T02:15:42.714Z,33.54
2023-06-19T02:18:10.072Z,33.66
2023-06-19T02:20:37.110Z,33.59
2023-06-19T02:23:04.114Z,33.28
2023-06-19T02:25:31.128Z,33.59
2023-06-19T02:27:58.163Z,33.34
2023-06-19T02:30:25.471Z,33.32
2023-06-19T02:32:52.693Z,33.46
2023-06-19T02:35:20.813Z,33.20
2023-06-19T02:37:48.256Z,33.28
2023-06-19T02:40:15.458Z,33.27
2023-06-19T02:42:42.770Z,33.25
2023-06-19T02:45:10.211Z,33.36
2023-06-19T02:47:37.407Z,33.16
2023-06-19T02:50:06.764Z,32.93
2023-06-19T02:52:33.742Z,32.98
2023-06-19T02:55:00.912Z,33.09
2023-06-19T02:57:27.929Z,32.99
2023-06-19T02:59:55.494Z,32.96
2023-06-19T03:02:22.717Z,32.93
2023-06-19T03:04:50.698Z,32.90
2023-06-19T03:07:18.178Z,32.95
2023-06-19T03:09:45.228Z,32.95
2023-06-19T03:12:12.325Z,32.12
2023-06-19T03:14:39.405Z,32.74
2023-06-19T03:17:07.011Z,32.48
2023-06-19T03:19:35.357Z,32.30
2023-06-19T03:22:02.694Z,32.77
2023-06-19T03:24:29.820Z,32.97
2023-06-19T03:27:10.199Z,32.92
2023-06-19T03:29:37.211Z,33.05
2023-06-19T03:32:07.796Z,32.99
2023-06-19T03:34:36.080Z,32.99
2023-06-19T03:37:07.474Z,32.86
2023-06-19T03:39:35.562Z,32.80
2023-06-19T03:42:07.335Z,32.78
2023-06-19T03:44:35.288Z,32.74
2023-06-19T03:47:02.308Z,32.53
2023-06-19T03:49:29.557Z,32.52
2023-06-19T03:51:56.895Z,32.37
2023-06-19T03:54:24.710Z,32.22
2023-06-19T03:56:52.308Z,32.16
2023-06-19T03:59:19.324Z,32.02
2023-06-19T04:01:46.424Z,31.55
2023-06-19T04:04:13.457Z,31.47
2023-06-19T04:06:40.478Z,32.06
2023-06-19T04:09:07.684Z,32.21
2023-06-19T04:11:34.843Z,31.89
2023-06-19T04:14:02.851Z,31.18
2023-06-19T04:16:30.831Z,30.91
2023-06-19T04:18:57.840Z,31.05
2023-06-19T04:21:25.636Z,31.03
2023-06-19T04:23:52.743Z,31.07
2023-06-19T04:26:20.079Z,30.88
2023-06-19T04:28:47.277Z,31.39
2023-06-19T04:31:19.056Z,31.75
2023-06-19T04:33:47.068Z,32.01
2023-06-19T04:36:15.310Z,31.48
2023-06-19T04:38:43.142Z,32.11
2023-06-19T04:41:10.281Z,32.01
2023-06-19T04:43:37.306Z,32.06
2023-06-19T04:46:05.123Z,31.95
2023-06-19T04:48:32.544Z,31.29
2023-06-19T04:51:01.729Z,30.70
2023-06-19T04:53:28.991Z,31.43
2023-06-19T04:55:56.377Z,30.73
2023-06-19T04:58:23.610Z,31.24
2023-06-19T05:00:53.745Z,31.85
2023-06-19T05:03:20.845Z,31.87
2023-06-19T05:05:48.234Z,31.56
2023-06-19T05:08:15.421Z,31.43
2023-06-19T05:10:44.346Z,31.90
2023-06-19T05:13:13.340Z,31.87
2023-06-19T05:15:40.332Z,31.92
2023-06-19T05:18:07.668Z,32.10
2023-06-19T05:20:34.703Z,31.64
2023-06-19T05:23:01.800Z,32.03
2023-06-19T05:25:28.922Z,32.58
2023-06-19T05:27:56.068Z,32.67
2023-06-19T05:30:23.600Z,32.83
2023-06-19T05:32:50.806Z,32.44
2023-06-19T05:35:17.776Z,32.80
2023-06-19T05:37:45.114Z,32.82
2023-06-19T05:40:12.414Z,32.97
2023-06-19T05:42:39.871Z,32.56
2023-06-19T05:45:07.758Z,32.76
2023-06-19T05:47:34.981Z,32.23
2023-06-19T05:50:01.976Z,32.95
2023-06-19T05:52:29.011Z,33.17
2023-06-19T05:54:56.172Z,32.94
2023-06-19T05:57:23.224Z,33.02
2023-06-19T05:59:53.958Z,33.23
2023-06-19T06:02:21.616Z,33.01
2023-06-19T06:04:48.812Z,32.95
2023-06-19T06:07:15.864Z,32.33
2023-06-19T06:09:42.954Z,32.32
2023-06-19T06:12:10.216Z,32.48
2023-06-19T06:14:37.230Z,32.61
2023-06-19T06:17:06.451Z,32.29
2023-06-19T06:19:33.553Z,32.51
2023-06-19T06:22:00.554Z,32.38
2023-06-19T06:24:27.808Z,32.15
2023-06-19T06:26:54.957Z,32.49
2023-06-19T06:29:22.392Z,32.37
2023-06-19T06:31:49.413Z,32.63
2023-06-19T06:34:16.630Z,32.88
2023-06-19T06:36:52.769Z,31.76
2023-06-19T06:39:28.583Z,32.04
2023-06-19T06:41:55.742Z,31.74
2023-06-19T06:44:23.545Z,31.13
2023-06-19T06:46:52.935Z,30.73
2023-06-19T06:49:20.104Z,31.99
2023-06-19T06:51:47.699Z,32.07
2023-06-19T06:54:14.798Z,32.31
2023-06-19T06:56:41.798Z,31.82
2023-06-19T06:59:08.758Z,32.19
2023-06-19T07:01:35.742Z,31.46
2023-06-19T07:04:02.766Z,32.32
2023-06-19T07:06:29.739Z,30.89
2023-06-19T07:08:56.708Z,30.80
2023-06-19T07:11:23.656Z,32.17
2023-06-19T07:13:50.859Z,31.31
2023-06-19T07:16:17.821Z,30.84
2023-06-19T07:18:44.894Z,31.69
2023-06-19T07:21:16.194Z,31.49
2023-06-19T07:23:46.678Z,32.04
2023-06-19T07:26:14.122Z,32.01
2023-06-19T07:28:42.007Z,31.15
2023-06-19T07:31:09.201Z,30.89
2023-06-19T07:33:36.332Z,31.37
2023-06-19T07:36:03.905Z,31.14
2023-06-19T07:38:31.022Z,31.50
2023-06-19T07:40:58.095Z,31.48
2023-06-19T07:43:25.099Z,31.01
2023-06-19T07:45:52.336Z,31.18
2023-06-19T07:48:19.446Z,32.22
2023-06-19T07:50:47.151Z,32.45
2023-06-19T07:53:14.144Z,33.28
2023-06-19T07:55:42.307Z,32.64
2023-06-19T07:58:09.300Z,31.83
2023-06-19T08:00:36.702Z,31.91
2023-06-19T08:03:05.647Z,31.72
2023-06-19T08:05:32.876Z,31.93
2023-06-19T08:08:00.926Z,31.84
2023-06-19T08:10:28.126Z,32.37
2023-06-19T08:12:55.343Z,31.79
2023-06-19T08:15:22.476Z,31.97
2023-06-19T08:17:49.832Z,31.85
2023-06-19T08:20:16.988Z,32.69
2023-06-19T08:22:43.960Z,31.56
2023-06-19T08:25:11.012Z,31.81
2023-06-19T08:27:38.128Z,33.17
2023-06-19T08:30:05.872Z,32.49
2023-06-19T08:32:33.145Z,31.87
2023-06-19T08:35:00.139Z,33.01
2023-06-19T08:37:27.165Z,32.77
2023-06-19T08:39:54.207Z,31.97
2023-06-19T08:42:21.196Z,32.24
2023-06-19T08:44:48.369Z,32.57
2023-06-19T08:47:15.513Z,33.03
2023-06-19T08:49:43.568Z,32.50
2023-06-19T08:52:10.541Z,32.12
2023-06-19T08:54:45.113Z,32.78
2023-06-19T08:57:15.905Z,33.43
2023-06-19T08:59:51.244Z,32.40
2023-06-19T09:02:18.742Z,32.29
2023-06-19T09:04:45.777Z,32.58
2023-06-19T09:07:15.441Z,33.45
2023-06-19T09:09:47.990Z,32.82
2023-06-19T09:12:16.254Z,32.80
2023-06-19T09:14:46.981Z,33.02
2023-06-19T09:17:20.445Z,33.04
2023-06-19T09:19:52.537Z,33.25
2023-06-19T09:22:22.258Z,34.03
2023-06-19T09:24:52.993Z,33.90
2023-06-19T09:27:20.900Z,32.82
2023-06-19T09:29:50.594Z,31.03
2023-06-19T09:32:29.723Z,31.39
2023-06-19T09:35:01.794Z,32.26
2023-06-19T09:37:31.263Z,32.85
2023-06-19T09:40:11.261Z,32.63
2023-06-19T09:42:43.805Z,32.83
2023-06-19T09:45:27.626Z,32.72
2023-06-19T09:47:57.955Z,33.09
2023-06-19T09:50:40.088Z,33.48
2023-06-19T09:53:07.357Z,33.16
2023-06-19T09:55:35.531Z,33.02
2023-06-19T09:58:04.004Z,32.60
2023-06-19T10:00:33.350Z,33.56
2023-06-19T10:03:01.592Z,33.38
2023-06-19T10:05:33.081Z,33.46
2023-06-19T10:08:02.143Z,34.09
2023-06-19T10:10:33.178Z,33.19
2023-06-19T10:13:21.235Z,33.73
2023-06-19T10:15:49.232Z,33.32
2023-06-19T10:18:19.251Z,33.91
2023-06-19T10:20:47.762Z,34.27
2023-06-19T10:23:23.340Z,34.84
2023-06-19T10:25:59.964Z,34.79
2023-06-19T10:28:31.870Z,34.46
2023-06-19T10:31:01.775Z,34.46
2023-06-19T10:33:33.127Z,33.44
2023-06-19T10:36:01.377Z,34.04
2023-06-19T10:38:28.874Z,33.81
2023-06-19T10:40:55.872Z,33.72
2023-06-19T10:43:26.267Z,33.72
2023-06-19T10:45:53.598Z,33.27
2023-06-19T10:48:25.676Z,33.92
2023-06-19T10:50:53.169Z,33.75
2023-06-19T10:53:31.110Z,34.33
2023-06-19T10:56:00.659Z,34.36
2023-06-19T10:58:29.484Z,34.77
2023-06-19T11:00:58.021Z,34.74
2023-06-19T11:03:25.390Z,35.75
2023-06-19T11:05:52.880Z,35.63
2023-06-19T11:08:22.497Z,35.90
2023-06-19T11:10:50.980Z,35.54
2023-06-19T11:13:22.124Z,35.43
2023-06-19T11:15:53.166Z,35.29
2023-06-19T11:18:20.814Z,35.04
2023-06-19T11:20:51.930Z,36.17
2023-06-19T11:23:30.088Z,36.68
2023-06-19T11:26:05.702Z,35.67
2023-06-19T11:28:33.166Z,36.05
2023-06-19T11:31:04.795Z,36.99
2023-06-19T11:33:31.962Z,36.80
2023-06-19T11:36:02.694Z,36.65
2023-06-19T11:38:30.548Z,36.79
2023-06-19T11:40:58.219Z,35.93
2023-06-19T11:43:32.703Z,36.59
2023-06-19T11:46:08.880Z,36.97
2023-06-19T11:48:40.108Z,37.57
2023-06-19T11:51:07.207Z,36.68
2023-06-19T11:53:35.583Z,36.39
2023-06-19T11:56:02.996Z,36.15
2023-06-19T11:58:30.196Z,36.17
2023-06-19T12:00:57.617Z,38.39
2023-06-19T12:03:24.995Z,38.21
2023-06-19T12:05:52.366Z,37.22
2023-06-19T12:08:19.590Z,37.29
2023-06-19T12:10:46.588Z,37.22
2023-06-19T12:13:13.603Z,37.28
2023-06-19T12:15:40.750Z,36.53
2023-06-19T12:18:08.991Z,36.93
2023-06-19T12:20:36.222Z,36.37
2023-06-19T12:23:03.925Z,37.27
2023-06-19T12:25:31.298Z,38.27
2023-06-19T12:27:58.260Z,36.01
2023-06-19T12:30:26.520Z,35.86
2023-06-19T12:32:54.008Z,35.84
2023-06-19T12:35:21.846Z,36.15
2023-06-19T12:37:48.943Z,37.14
2023-06-19T12:40:16.260Z,37.28
2023-06-19T12:42:44.525Z,38.01
2023-06-19T12:45:11.841Z,37.65
2023-06-19T12:47:39.250Z,37.06
2023-06-19T12:50:06.933Z,36.78
2023-06-19T12:52:33.926Z,36.44
2023-06-19T12:55:02.341Z,36.52
2023-06-19T12:57:29.417Z,36.18
2023-06-19T12:59:56.421Z,36.64
2023-06-19T13:02:24.208Z,36.98
2023-06-19T13:04:51.460Z,36.48
2023-06-19T13:07:18.508Z,36.78
2023-06-19T13:09:45.480Z,36.93
2023-06-19T13:12:12.507Z,36.74
2023-06-19T13:14:39.574Z,37.52
2023-06-19T13:17:07.315Z,38.33
2023-06-19T13:19:35.219Z,38.63
2023-06-19T13:22:02.392Z,39.20
2023-06-19T13:24:29.461Z,38.25
2023-06-19T13:26:56.491Z,37.71
2023-06-19T13:29:23.653Z,38.94
2023-06-19T13:31:50.678Z,37.92
2023-06-19T13:34:19.640Z,37.22
2023-06-19T13:36:46.643Z,36.66
2023-06-19T13:39:13.680Z,37.82
2023-06-19T13:41:40.944Z,39.39
2023-06-19T13:44:08.475Z,38.32
2023-06-19T13:46:35.599Z,39.09
2023-06-19T13:49:02.674Z,39.04
2023-06-19T13:51:29.849Z,39.73
2023-06-19T13:53:56.973Z,39.03
2023-06-19T13:56:27.098Z,39.18
2023-06-19T13:58:54.137Z,39.79
2023-06-19T14:01:21.205Z,39.44
2023-06-19T14:03:48.353Z,37.91
2023-06-19T14:06:15.421Z,38.41
2023-06-19T14:08:44.161Z,38.05
2023-06-19T14:11:11.192Z,38.51
2023-06-19T14:13:38.507Z,38.51
2023-06-19T14:16:05.500Z,38.36
2023-06-19T14:18:32.568Z,38.20
2023-06-19T14:20:59.649Z,37.62
2023-06-19T14:23:26.686Z,37.95
2023-06-19T14:25:53.941Z,38.05
2023-06-19T14:28:21.196Z,37.99
2023-06-19T14:30:48.401Z,37.33
2023-06-19T14:33:18.450Z,38.03
2023-06-19T14:35:47.107Z,38.02
2023-06-19T14:38:15.384Z,38.16
2023-06-19T14:40:45.841Z,38.04
2023-06-19T14:43:12.921Z,37.97
2023-06-19T14:45:41.268Z,38.26
2023-06-19T14:48:08.501Z,38.36
2023-06-19T14:50:36.602Z,38.70
2023-06-19T14:53:03.718Z,37.72
2023-06-19T14:55:30.993Z,38.15
2023-06-19T14:57:58.338Z,38.45
2023-06-19T15:00:26.084Z,38.35
2023-06-19T15:02:53.448Z,37.86
2023-06-19T15:05:20.685Z,37.20
2023-06-19T15:07:47.946Z,37.56
2023-06-19T15:10:15.125Z,37.81
2023-06-19T15:12:42.130Z,38.28
2023-06-19T15:15:09.803Z,37.88
2023-06-19T15:17:36.771Z,37.68
2023-06-19T15:20:05.265Z,37.44
2023-06-19T15:22:32.300Z,37.84
2023-06-19T15:24:59.342Z,37.43
2023-06-19T15:27:26.425Z,37.91
2023-06-19T15:29:53.388Z,37.60
2023-06-19T15:32:20.462Z,37.59
2023-06-19T15:34:47.572Z,37.17
2023-06-19T15:37:14.699Z,37.20
2023-06-19T15:39:43.107Z,38.19
2023-06-19T15:42:10.615Z,37.89
2023-06-19T15:44:37.844Z,38.03
2023-06-19T15:47:05.009Z,37.74
2023-06-19T15:49:31.978Z,37.54
2023-06-19T15:51:59.034Z,37.82
2023-06-19T15:54:26.350Z,37.63
2023-06-19T15:56:53.328Z,38.17
2023-06-19T15:59:20.460Z,37.35
2023-06-19T16:01:47.784Z,37.94
2023-06-19T16:04:15.349Z,38.09
2023-06-19T16:06:42.728Z,38.22
2023-06-19T16:09:09.781Z,37.99
2023-06-19T16:11:37.072Z,38.14
2023-06-19T16:14:04.050Z,38.12
2023-06-19T16:16:31.469Z,37.47
2023-06-19T16:18:58.556Z,37.33
2023-06-19T16:21:28.911Z,37.80
2023-06-19T16:23:56.033Z,38.24
2023-06-19T16:26:23.346Z,38.14
2023-06-19T16:28:51.973Z,38.47
2023-06-19T16:31:19.281Z,37.83
2023-06-19T16:33:46.994Z,37.48
2023-06-19T16:36:14.269Z,37.40
2023-06-19T16:38:41.610Z,37.28
2023-06-19T16:41:08.699Z,37.13
2023-06-19T16:43:35.843Z,37.85
2023-06-19T16:46:03.148Z,37.27
2023-06-19T16:48:30.391Z,37.81
2023-06-19T16:50:57.413Z,37.52
2023-06-19T16:53:24.523Z,37.46
2023-06-19T16:55:51.536Z,36.81
2023-06-19T16:58:18.802Z,37.46
2023-06-19T17:00:45.811Z,37.57
2023-06-19T17:03:14.077Z,37.67
2023-06-19T17:05:41.160Z,36.98
2023-06-19T17:08:08.399Z,36.65
2023-06-19T17:10:35.363Z,36.99
2023-06-19T17:13:03.001Z,36.55
2023-06-19T17:15:31.849Z,36.62
2023-06-19T17:18:00.338Z,36.52
2023-06-19T17:20:28.476Z,36.31
2023-06-19T17:22:56.777Z,36.94
2023-06-19T17:25:23.900Z,35.79
2023-06-19T17:27:50.840Z,36.14
2023-06-19T17:30:17.940Z,36.75
2023-06-19T17:32:45.880Z,36.74
2023-06-19T17:35:13.342Z,36.76
2023-06-19T17:37:40.659Z,36.20
2023-06-19T17:40:13.979Z,36.62
2023-06-19T17:42:41.946Z,36.98
2023-06-19T17:45:10.412Z,36.77
2023-06-19T17:47:37.497Z,36.56
2023-06-19T17:50:05.039Z,36.68
2023-06-19T17:52:32.018Z,36.96
2023-06-19T17:54:59.096Z,37.06
2023-06-19T17:57:27.267Z,36.88
2023-06-19T17:59:55.406Z,37.02
2023-06-19T18:02:22.736Z,36.95
2023-06-19T18:04:49.984Z,37.11
2023-06-19T18:07:18.698Z,36.26
2023-06-19T18:09:49.821Z,36.84
2023-06-19T18:12:18.282Z,36.84
2023-06-19T18:14:45.502Z,36.90
2023-06-19T18:17:13.070Z,36.63
2023-06-19T18:19:40.730Z,36.75
2023-06-19T18:22:07.766Z,36.59
2023-06-19T18:24:34.859Z,36.46
2023-06-19T18:27:02.065Z,35.93
2023-06-19T18:29:31.744Z,36.12
2023-06-19T18:31:59.140Z,36.74
2023-06-19T18:34:26.206Z,36.89
2023-06-19T18:36:53.243Z,37.22
2023-06-19T18:39:20.340Z,37.24
2023-06-19T18:41:48.051Z,37.27
2023-06-19T18:44:15.669Z,37.41
2023-06-19T18:46:42.936Z,36.90
2023-06-19T18:49:10.544Z,36.75
2023-06-19T18:51:37.533Z,36.53
2023-06-19T18:54:04.781Z,36.46
2023-06-19T18:56:31.890Z,36.68
2023-06-19T18:58:58.911Z,36.82
2023-06-19T19:01:26.274Z,36.78
2023-06-19T19:03:53.369Z,36.75
2023-06-19T19:06:20.659Z,36.79
2023-06-19T19:08:47.779Z,36.74
2023-06-19T19:11:15.098Z,36.72
2023-06-19T19:13:42.157Z,36.49
2023-06-19T19:16:09.189Z,36.46
2023-06-19T19:18:36.188Z,36.54
2023-06-19T19:21:03.280Z,36.42
2023-06-19T19:23:30.287Z,36.52
2023-06-19T19:25:57.389Z,36.52
2023-06-19T19:28:24.423Z,36.44
2023-06-19T19:30:51.787Z,36.25
2023-06-19T19:33:18.902Z,36.23
2023-06-19T19:35:46.664Z,36.22
2023-06-19T19:38:16.066Z,36.21
2023-06-19T19:40:43.644Z,36.17
2023-06-19T19:43:13.384Z,36.10
2023-06-19T19:45:41.077Z,36.11
2023-06-19T19:48:08.197Z,36.08
2023-06-19T19:50:35.278Z,35.94
2023-06-19T19:53:02.292Z,35.93
2023-06-19T19:55:29.431Z,36.02
2023-06-19T19:57:59.668Z,36.12
2023-06-19T20:00:26.920Z,35.85
2023-06-19T20:02:54.299Z,35.87
2023-06-19T20:05:21.392Z,35.79
2023-06-19T20:07:48.389Z,35.70
2023-06-19T20:10:15.470Z,35.74
2023-06-19T20:12:42.619Z,35.60
2023-06-19T20:15:10.453Z,35.87
2023-06-19T20:17:37.741Z,35.47
2023-06-19T20:20:06.778Z,35.53
2023-06-19T20:22:34.045Z,35.49
2023-06-19T20:25:01.203Z,35.52
2023-06-19T20:27:28.334Z,35.52
2023-06-19T20:29:55.530Z,35.53
2023-06-19T20:32:22.877Z,35.31
2023-06-19T20:34:50.050Z,35.32
2023-06-19T20:37:17.074Z,35.41
2023-06-19T20:39:44.318Z,35.30
2023-06-19T20:42:11.368Z,35.33
2023-06-19T20:44:38.369Z,35.33
2023-06-19T20:47:05.795Z,35.25
2023-06-19T20:49:32.819Z,35.38
2023-06-19T20:51:59.786Z,35.37
2023-06-19T20:54:26.744Z,35.28
2023-06-19T20:56:53.722Z,35.25
2023-06-19T20:59:20.909Z,35.17
2023-06-19T21:01:47.900Z,35.19
2023-06-19T21:04:14.955Z,35.12
2023-06-19T21:06:42.091Z,34.96
2023-06-19T21:09:09.558Z,35.01
2023-06-19T21:11:36.827Z,35.03
2023-06-19T21:14:03.970Z,34.87
2023-06-19T21:16:31.246Z,34.84
2023-06-19T21:18:58.381Z,34.87
2023-06-19T21:21:25.581Z,34.97
2023-06-19T21:23:52.615Z,34.92
2023-06-19T21:26:19.740Z,34.84
2023-06-19T21:28:46.738Z,34.76
2023-06-19T21:31:16.276Z,34.75
2023-06-19T21:33:43.268Z,34.80
2023-06-19T21:36:10.580Z,34.81
2023-06-19T21:38:37.671Z,34.78
2023-06-19T21:41:04.772Z,34.72
2023-06-19T21:43:31.957Z,34.75
2023-06-19T21:45:59.656Z,34.63
2023-06-19T21:48:27.334Z,34.72
2023-06-19T21:50:54.976Z,34.75
2023-06-19T21:53:22.851Z,34.78
2023-06-19T21:55:50.016Z,34.66
2023-06-19T21:58:17.071Z,34.64
2023-06-19T22:00:44.135Z,34.46
2023-06-19T22:03:11.389Z,34.63
2023-06-19T22:05:38.536Z,34.60
2023-06-19T22:08:05.694Z,34.57
2023-06-19T22:10:33.368Z,34.44
2023-06-19T22:13:00.504Z,34.54
2023-06-19T22:15:27.654Z,34.45
2023-06-19T22:17:54.762Z,34.49
2023-06-19T22:20:21.921Z,34.44
2023-06-19T22:22:49.564Z,34.42
2023-06-19T22:25:17.379Z,34.27
2023-06-19T22:27:46.482Z,34.22
2023-06-19T22:30:15.299Z,34.44
2023-06-19T22:32:42.951Z,34.58
2023-06-19T22:35:10.264Z,34.27
2023-06-19T22:37:38.546Z,34.21
2023-06-19T22:40:08.856Z,34.29
2023-06-19T22:42:39.162Z,34.33
2023-06-19T22:45:15.143Z,34.36
2023-06-19T22:47:42.333Z,34.08
2023-06-19T22:50:11.384Z,34.20
2023-06-19T22:52:38.965Z,34.16
2023-06-19T22:55:06.889Z,34.11
2023-06-19T22:57:38.015Z,34.14
2023-06-19T23:00:14.610Z,34.02
2023-06-19T23:02:43.768Z,33.89
2023-06-19T23:05:12.442Z,33.86
2023-06-19T23:07:40.288Z,33.67
2023-06-19T23:10:11.009Z,33.86
2023-06-19T23:12:38.920Z,33.81
2023-06-19T23:15:10.034Z,33.84
2023-06-19T23:17:37.244Z,33.73
2023-06-19T23:20:12.406Z,33.77
2023-06-19T23:22:40.840Z,33.80
2023-06-19T23:25:08.922Z,33.68
2023-06-19T23:27:38.611Z,33.63
2023-06-19T23:30:06.683Z,33.62
2023-06-19T23:32:34.071Z,33.52
2023-06-19T23:35:01.078Z,33.54
2023-06-19T23:37:28.198Z,33.56
2023-06-19T23:39:55.215Z,33.52
2023-06-19T23:42:22.258Z,33.51
2023-06-19T23:44:49.346Z,33.36
2023-06-19T23:47:16.290Z,33.27
2023-06-19T23:49:44.278Z,33.37
2023-06-19T23:52:11.369Z,33.41
2023-06-19T23:54:38.353Z,33.29
2023-06-19T23:57:08.717Z,33.49
2023-06-19T23:59:36.135Z,33.40
